sensor_id;sensor_type;location;lat;lon;timestamp;P1;durP1;ratioP1;P2;durP2;ratioP2
21769;SDS011;11046;49.558;8.674;2022-11-15T00:01:28;10.30;;;4.77;;
21769;SDS011;11046;49.558;8.674;2022-11-15T00:04:47;11.97;;;5.20;;
21769;SDS011;11046;49.558;8.674;2022-11-15T00:08:06;5.87;;;3.87;;
21769;SDS011;11046;49.558;8.674;2022-11-15T00:11:31;7.97;;;4.00;;
21769;SDS011;11046;49.558;8.674;2022-11-15T00:14:51;7.50;;;4.10;;
21769;SDS011;11046;49.558;8.674;2022-11-15T00:18:13;8.93;;;3.90;;
21769;SDS011;11046;49.558;8.674;2022-11-15T00:21:33;6.23;;;3.70;;
21769;SDS011;11046;49.558;8.674;2022-11-15T00:24:52;7.50;;;4.20;;
21769;SDS011;11046;49.558;8.674;2022-11-15T00:28:14;9.37;;;4.20;;
21769;SDS011;11046;49.558;8.674;2022-11-15T00:31:33;10.37;;;4.40;;
21769;SDS011;11046;49.558;8.674;2022-11-15T00:34:52;7.03;;;3.77;;
21769;SDS011;11046;49.558;8.674;2022-11-15T00:38:11;5.77;;;4.03;;
21769;SDS011;11046;49.558;8.674;2022-11-15T00:41:30;8.47;;;4.00;;
21769;SDS011;11046;49.558;8.674;2022-11-15T00:44:50;7.33;;;4.10;;
21769;SDS011;11046;49.558;8.674;2022-11-15T00:48:09;7.50;;;3.73;;
21769;SDS011;11046;49.558;8.674;2022-11-15T00:51:29;9.70;;;4.10;;
21769;SDS011;11046;49.558;8.674;2022-11-15T00:54:49;5.07;;;3.40;;
21769;SDS011;11046;49.558;8.674;2022-11-15T00:58:08;9.40;;;4.03;;
21769;SDS011;11046;49.558;8.674;2022-11-15T01:01:27;7.47;;;3.60;;
21769;SDS011;11046;49.558;8.674;2022-11-15T01:04:47;6.60;;;4.03;;
21769;SDS011;11046;49.558;8.674;2022-11-15T01:08:06;6.83;;;4.20;;
21769;SDS011;11046;49.558;8.674;2022-11-15T01:11:30;17.53;;;4.97;;
21769;SDS011;11046;49.558;8.674;2022-11-15T01:14:49;8.40;;;4.27;;
21769;SDS011;11046;49.558;8.674;2022-11-15T01:18:08;8.00;;;4.40;;
21769;SDS011;11046;49.558;8.674;2022-11-15T01:21:28;9.13;;;4.70;;
21769;SDS011;11046;49.558;8.674;2022-11-15T01:24:49;5.77;;;4.17;;
21769;SDS011;11046;49.558;8.674;2022-11-15T01:28:08;6.47;;;3.83;;
21769;SDS011;11046;49.558;8.674;2022-11-15T01:31:27;8.00;;;4.27;;
21769;SDS011;11046;49.558;8.674;2022-11-15T01:34:46;11.10;;;4.00;;
21769;SDS011;11046;49.558;8.674;2022-11-15T01:38:05;5.00;;;3.80;;
21769;SDS011;11046;49.558;8.674;2022-11-15T01:41:28;6.03;;;3.90;;
21769;SDS011;11046;49.558;8.674;2022-11-15T01:44:50;6.00;;;4.00;;
21769;SDS011;11046;49.558;8.674;2022-11-15T01:48:10;7.93;;;4.07;;
21769;SDS011;11046;49.558;8.674;2022-11-15T01:51:30;7.43;;;4.07;;
21769;SDS011;11046;49.558;8.674;2022-11-15T01:54:56;10.50;;;3.93;;
21769;SDS011;11046;49.558;8.674;2022-11-15T01:58:26;19.00;;;5.87;;
21769;SDS011;11046;49.558;8.674;2022-11-15T02:01:45;10.27;;;4.10;;
21769;SDS011;11046;49.558;8.674;2022-11-15T02:05:04;6.13;;;3.83;;
21769;SDS011;11046;49.558;8.674;2022-11-15T02:08:24;7.17;;;4.00;;
21769;SDS011;11046;49.558;8.674;2022-11-15T02:11:43;7.53;;;3.90;;
21769;SDS011;11046;49.558;8.674;2022-11-15T02:15:04;5.63;;;3.70;;
21769;SDS011;11046;49.558;8.674;2022-11-15T02:18:26;10.03;;;4.20;;
21769;SDS011;11046;49.558;8.674;2022-11-15T02:22:04;8.37;;;3.87;;
21769;SDS011;11046;49.558;8.674;2022-11-15T02:32:58;5.23;;;3.47;;
21769;SDS011;11046;49.558;8.674;2022-11-15T02:43:30;7.23;;;3.63;;
21769;SDS011;11046;49.558;8.674;2022-11-15T02:47:24;9.90;;;3.90;;
21769;SDS011;11046;49.558;8.674;2022-11-15T02:50:46;8.70;;;4.47;;
21769;SDS011;11046;49.558;8.674;2022-11-15T02:54:06;7.27;;;3.53;;
21769;SDS011;11046;49.558;8.674;2022-11-15T03:04:38;8.77;;;3.60;;
21769;SDS011;11046;49.558;8.674;2022-11-15T03:11:24;5.90;;;3.83;;
21769;SDS011;11046;49.558;8.674;2022-11-15T03:14:49;6.57;;;3.70;;
21769;SDS011;11046;49.558;8.674;2022-11-15T03:18:20;5.57;;;3.67;;
21769;SDS011;11046;49.558;8.674;2022-11-15T03:21:46;8.10;;;3.50;;
21769;SDS011;11046;49.558;8.674;2022-11-15T03:25:08;9.70;;;4.33;;
21769;SDS011;11046;49.558;8.674;2022-11-15T03:28:39;6.03;;;3.67;;
21769;SDS011;11046;49.558;8.674;2022-11-15T03:32:07;7.20;;;4.23;;
21769;SDS011;11046;49.558;8.674;2022-11-15T03:35:38;5.60;;;3.87;;
21769;SDS011;11046;49.558;8.674;2022-11-15T03:39:01;7.27;;;3.83;;
21769;SDS011;11046;49.558;8.674;2022-11-15T03:42:27;8.57;;;4.10;;
21769;SDS011;11046;49.558;8.674;2022-11-15T03:45:54;7.73;;;4.40;;
21769;SDS011;11046;49.558;8.674;2022-11-15T03:49:24;11.37;;;3.87;;
21769;SDS011;11046;49.558;8.674;2022-11-15T03:52:55;9.07;;;4.10;;
21769;SDS011;11046;49.558;8.674;2022-11-15T03:56:15;6.63;;;4.03;;
21769;SDS011;11046;49.558;8.674;2022-11-15T03:59:34;5.67;;;3.80;;
21769;SDS011;11046;49.558;8.674;2022-11-15T04:02:54;7.93;;;4.17;;
21769;SDS011;11046;49.558;8.674;2022-11-15T04:06:13;8.13;;;4.00;;
21769;SDS011;11046;49.558;8.674;2022-11-15T04:09:32;7.53;;;4.43;;
21769;SDS011;11046;49.558;8.674;2022-11-15T04:12:51;8.23;;;4.00;;
21769;SDS011;11046;49.558;8.674;2022-11-15T04:16:10;11.00;;;4.17;;
21769;SDS011;11046;49.558;8.674;2022-11-15T04:19:32;5.77;;;3.87;;
21769;SDS011;11046;49.558;8.674;2022-11-15T04:23:11;6.87;;;4.07;;
21769;SDS011;11046;49.558;8.674;2022-11-15T04:26:54;8.87;;;3.80;;
21769;SDS011;11046;49.558;8.674;2022-11-15T04:30:19;10.47;;;3.90;;
21769;SDS011;11046;49.558;8.674;2022-11-15T04:33:38;8.63;;;4.60;;
21769;SDS011;11046;49.558;8.674;2022-11-15T04:36:57;6.13;;;4.00;;
21769;SDS011;11046;49.558;8.674;2022-11-15T04:40:32;7.83;;;4.30;;
21769;SDS011;11046;49.558;8.674;2022-11-15T04:43:51;6.03;;;3.77;;
21769;SDS011;11046;49.558;8.674;2022-11-15T04:47:11;6.23;;;3.87;;
21769;SDS011;11046;49.558;8.674;2022-11-15T04:50:30;7.87;;;4.27;;
21769;SDS011;11046;49.558;8.674;2022-11-15T04:53:49;6.50;;;3.93;;
21769;SDS011;11046;49.558;8.674;2022-11-15T04:57:08;6.73;;;3.60;;
21769;SDS011;11046;49.558;8.674;2022-11-15T05:00:28;8.00;;;4.30;;
21769;SDS011;11046;49.558;8.674;2022-11-15T05:03:48;7.53;;;4.57;;
21769;SDS011;11046;49.558;8.674;2022-11-15T05:07:28;11.57;;;5.97;;
21769;SDS011;11046;49.558;8.674;2022-11-15T05:10:47;9.30;;;4.97;;
21769;SDS011;11046;49.558;8.674;2022-11-15T05:14:06;13.57;;;5.23;;
21769;SDS011;11046;49.558;8.674;2022-11-15T05:17:26;10.90;;;4.67;;
21769;SDS011;11046;49.558;8.674;2022-11-15T05:20:45;12.37;;;4.70;;
21769;SDS011;11046;49.558;8.674;2022-11-15T05:24:04;9.53;;;5.70;;
21769;SDS011;11046;49.558;8.674;2022-11-15T05:27:24;9.07;;;5.03;;
21769;SDS011;11046;49.558;8.674;2022-11-15T05:30:43;9.60;;;5.00;;
21769;SDS011;11046;49.558;8.674;2022-11-15T05:34:02;9.00;;;5.40;;
21769;SDS011;11046;49.558;8.674;2022-11-15T05:37:24;9.07;;;5.13;;
21769;SDS011;11046;49.558;8.674;2022-11-15T05:40:43;10.17;;;5.03;;
21769;SDS011;11046;49.558;8.674;2022-11-15T05:44:02;9.90;;;5.20;;
21769;SDS011;11046;49.558;8.674;2022-11-15T05:47:26;10.50;;;5.13;;
21769;SDS011;11046;49.558;8.674;2022-11-15T05:50:49;10.37;;;5.20;;
21769;SDS011;11046;49.558;8.674;2022-11-15T05:54:08;11.60;;;5.33;;
21769;SDS011;11046;49.558;8.674;2022-11-15T05:57:29;10.60;;;5.23;;
21769;SDS011;11046;49.558;8.674;2022-11-15T06:00:48;10.00;;;5.43;;
21769;SDS011;11046;49.558;8.674;2022-11-15T06:04:07;15.60;;;6.00;;
21769;SDS011;11046;49.558;8.674;2022-11-15T06:07:26;8.93;;;5.50;;
21769;SDS011;11046;49.558;8.674;2022-11-15T06:10:47;13.93;;;6.07;;
21769;SDS011;11046;49.558;8.674;2022-11-15T06:14:06;11.50;;;5.90;;
21769;SDS011;11046;49.558;8.674;2022-11-15T06:17:25;8.97;;;5.70;;
21769;SDS011;11046;49.558;8.674;2022-11-15T06:20:44;13.97;;;5.77;;
21769;SDS011;11046;49.558;8.674;2022-11-15T06:24:03;10.53;;;5.77;;
21769;SDS011;11046;49.558;8.674;2022-11-15T06:27:23;10.00;;;5.40;;
21769;SDS011;11046;49.558;8.674;2022-11-15T06:30:42;11.67;;;6.30;;
21769;SDS011;11046;49.558;8.674;2022-11-15T06:34:01;11.27;;;6.37;;
21769;SDS011;11046;49.558;8.674;2022-11-15T06:37:21;13.30;;;5.53;;
21769;SDS011;11046;49.558;8.674;2022-11-15T06:40:40;9.50;;;6.10;;
21769;SDS011;11046;49.558;8.674;2022-11-15T06:43:59;9.50;;;6.03;;
21769;SDS011;11046;49.558;8.674;2022-11-15T06:47:18;9.80;;;5.60;;
21769;SDS011;11046;49.558;8.674;2022-11-15T06:50:37;10.37;;;6.37;;
21769;SDS011;11046;49.558;8.674;2022-11-15T06:53:56;13.30;;;6.50;;
21769;SDS011;11046;49.558;8.674;2022-11-15T06:57:15;13.13;;;6.03;;
21769;SDS011;11046;49.558;8.674;2022-11-15T07:00:34;11.20;;;5.97;;
21769;SDS011;11046;49.558;8.674;2022-11-15T07:03:53;13.53;;;7.00;;
21769;SDS011;11046;49.558;8.674;2022-11-15T07:07:12;13.63;;;7.33;;
21769;SDS011;11046;49.558;8.674;2022-11-15T07:10:31;18.50;;;8.37;;
21769;SDS011;11046;49.558;8.674;2022-11-15T07:13:50;26.13;;;11.50;;
21769;SDS011;11046;49.558;8.674;2022-11-15T07:17:09;20.80;;;10.73;;
21769;SDS011;11046;49.558;8.674;2022-11-15T07:20:29;23.17;;;12.20;;
21769;SDS011;11046;49.558;8.674;2022-11-15T07:23:48;26.83;;;13.63;;
21769;SDS011;11046;49.558;8.674;2022-11-15T07:27:07;22.87;;;13.27;;
21769;SDS011;11046;49.558;8.674;2022-11-15T07:30:26;22.73;;;10.33;;
21769;SDS011;11046;49.558;8.674;2022-11-15T07:33:46;14.97;;;9.30;;
21769;SDS011;11046;49.558;8.674;2022-11-15T07:37:05;19.27;;;9.97;;
21769;SDS011;11046;49.558;8.674;2022-11-15T07:40:24;20.53;;;11.30;;
21769;SDS011;11046;49.558;8.674;2022-11-15T07:43:45;20.40;;;13.23;;
21769;SDS011;11046;49.558;8.674;2022-11-15T07:47:04;16.07;;;11.10;;
21769;SDS011;11046;49.558;8.674;2022-11-15T07:50:23;20.47;;;11.53;;
21769;SDS011;11046;49.558;8.674;2022-11-15T07:53:49;22.87;;;10.97;;
21769;SDS011;11046;49.558;8.674;2022-11-15T07:57:08;17.57;;;8.83;;
21769;SDS011;11046;49.558;8.674;2022-11-15T08:00:33;14.10;;;7.80;;
21769;SDS011;11046;49.558;8.674;2022-11-15T08:03:52;13.00;;;7.13;;
21769;SDS011;11046;49.558;8.674;2022-11-15T08:07:11;9.30;;;6.07;;
21769;SDS011;11046;49.558;8.674;2022-11-15T08:10:31;10.50;;;5.93;;
21769;SDS011;11046;49.558;8.674;2022-11-15T08:13:50;7.83;;;4.90;;
21769;SDS011;11046;49.558;8.674;2022-11-15T08:17:10;13.10;;;4.93;;
21769;SDS011;11046;49.558;8.674;2022-11-15T08:20:29;7.33;;;4.10;;
21769;SDS011;11046;49.558;8.674;2022-11-15T08:23:49;8.83;;;5.40;;
21769;SDS011;11046;49.558;8.674;2022-11-15T08:27:08;12.93;;;5.67;;
21769;SDS011;11046;49.558;8.674;2022-11-15T08:30:37;11.30;;;7.13;;
21769;SDS011;11046;49.558;8.674;2022-11-15T08:34:00;19.67;;;7.57;;
21769;SDS011;11046;49.558;8.674;2022-11-15T08:37:19;12.73;;;7.33;;
21769;SDS011;11046;49.558;8.674;2022-11-15T08:40:39;13.80;;;8.07;;
21769;SDS011;11046;49.558;8.674;2022-11-15T08:43:58;16.03;;;8.23;;
21769;SDS011;11046;49.558;8.674;2022-11-15T08:47:18;17.60;;;9.30;;
21769;SDS011;11046;49.558;8.674;2022-11-15T08:50:37;19.90;;;8.77;;
21769;SDS011;11046;49.558;8.674;2022-11-15T08:53:56;16.47;;;8.87;;
21769;SDS011;11046;49.558;8.674;2022-11-15T08:57:15;17.47;;;8.33;;
21769;SDS011;11046;49.558;8.674;2022-11-15T09:00:34;18.37;;;10.43;;
21769;SDS011;11046;49.558;8.674;2022-11-15T09:03:53;23.47;;;12.20;;
21769;SDS011;11046;49.558;8.674;2022-11-15T09:07:16;22.70;;;11.60;;
21769;SDS011;11046;49.558;8.674;2022-11-15T09:10:36;22.83;;;11.57;;
21769;SDS011;11046;49.558;8.674;2022-11-15T09:13:55;16.67;;;10.50;;
21769;SDS011;11046;49.558;8.674;2022-11-15T09:17:14;17.23;;;10.53;;
21769;SDS011;11046;49.558;8.674;2022-11-15T09:20:33;16.97;;;9.73;;
21769;SDS011;11046;49.558;8.674;2022-11-15T09:23:52;17.30;;;9.10;;
21769;SDS011;11046;49.558;8.674;2022-11-15T09:27:11;25.33;;;11.10;;
21769;SDS011;11046;49.558;8.674;2022-11-15T09:30:31;20.27;;;10.20;;
21769;SDS011;11046;49.558;8.674;2022-11-15T09:33:50;19.60;;;10.67;;
21769;SDS011;11046;49.558;8.674;2022-11-15T09:37:09;19.27;;;11.40;;
21769;SDS011;11046;49.558;8.674;2022-11-15T09:40:29;8.67;;;4.87;;
21769;SDS011;11046;49.558;8.674;2022-11-15T09:44:07;9.47;;;5.43;;
21769;SDS011;11046;49.558;8.674;2022-11-15T09:51:47;4.72;;;2.90;;
21769;SDS011;11046;49.558;8.674;2022-11-15T09:54:51;5.27;;;2.90;;
21769;SDS011;11046;49.558;8.674;2022-11-15T09:58:00;3.93;;;2.43;;
21769;SDS011;11046;49.558;8.674;2022-11-15T10:01:12;5.25;;;2.88;;
21769;SDS011;11046;49.558;8.674;2022-11-15T10:04:21;4.63;;;3.10;;
21769;SDS011;11046;49.558;8.674;2022-11-15T10:07:27;8.13;;;3.42;;
21769;SDS011;11046;49.558;8.674;2022-11-15T10:10:42;10.55;;;3.20;;
21769;SDS011;11046;49.558;8.674;2022-11-15T10:13:47;6.25;;;3.72;;
21769;SDS011;11046;49.558;8.674;2022-11-15T10:20:22;5.07;;;2.95;;
21769;SDS011;11046;49.558;8.674;2022-11-15T10:23:26;5.57;;;3.50;;
21769;SDS011;11046;49.558;8.674;2022-11-15T10:26:27;9.82;;;3.85;;
21769;SDS011;11046;49.558;8.674;2022-11-15T10:29:28;8.65;;;3.70;;
21769;SDS011;11046;49.558;8.674;2022-11-15T10:32:29;7.70;;;3.22;;
21769;SDS011;11046;49.558;8.674;2022-11-15T10:35:34;6.53;;;3.17;;
21769;SDS011;11046;49.558;8.674;2022-11-15T10:41:51;4.88;;;3.20;;
21769;SDS011;11046;49.558;8.674;2022-11-15T10:44:51;6.80;;;3.40;;
21769;SDS011;11046;49.558;8.674;2022-11-15T10:47:52;6.10;;;3.35;;
21769;SDS011;11046;49.558;8.674;2022-11-15T10:50:53;6.32;;;3.33;;
21769;SDS011;11046;49.558;8.674;2022-11-15T10:53:56;4.60;;;2.92;;
21769;SDS011;11046;49.558;8.674;2022-11-15T10:56:59;5.28;;;3.22;;
21769;SDS011;11046;49.558;8.674;2022-11-15T11:06:28;6.18;;;2.88;;
21769;SDS011;11046;49.558;8.674;2022-11-15T11:09:39;7.35;;;3.33;;
21769;SDS011;11046;49.558;8.674;2022-11-15T11:12:42;7.32;;;3.50;;
21769;SDS011;11046;49.558;8.674;2022-11-15T11:15:44;5.35;;;3.33;;
21769;SDS011;11046;49.558;8.674;2022-11-15T11:25:22;8.55;;;3.70;;
21769;SDS011;11046;49.558;8.674;2022-11-15T11:32:29;4.15;;;2.50;;
21769;SDS011;11046;49.558;8.674;2022-11-15T11:45:52;4.93;;;2.95;;
21769;SDS011;11046;49.558;8.674;2022-11-15T11:49:15;8.38;;;2.90;;
21769;SDS011;11046;49.558;8.674;2022-11-15T11:55:37;3.30;;;1.90;;
21769;SDS011;11046;49.558;8.674;2022-11-15T11:58:46;3.33;;;1.80;;
21769;SDS011;11046;49.558;8.674;2022-11-15T12:01:48;4.25;;;1.88;;
21769;SDS011;11046;49.558;8.674;2022-11-15T12:04:50;2.55;;;1.90;;
21769;SDS011;11046;49.558;8.674;2022-11-15T12:07:57;4.90;;;2.10;;
21769;SDS011;11046;49.558;8.674;2022-11-15T12:11:10;5.10;;;2.10;;
21769;SDS011;11046;49.558;8.674;2022-11-15T12:14:27;3.85;;;1.85;;
21769;SDS011;11046;49.558;8.674;2022-11-15T12:17:38;2.92;;;1.70;;
21769;SDS011;11046;49.558;8.674;2022-11-15T12:20:41;4.25;;;2.08;;
21769;SDS011;11046;49.558;8.674;2022-11-15T12:23:53;3.30;;;2.00;;
21769;SDS011;11046;49.558;8.674;2022-11-15T12:27:05;3.28;;;2.00;;
21769;SDS011;11046;49.558;8.674;2022-11-15T12:30:10;3.70;;;2.40;;
21769;SDS011;11046;49.558;8.674;2022-11-15T12:34:13;8.32;;;3.58;;
21769;SDS011;11046;49.558;8.674;2022-11-15T12:36:45;4.43;;;3.08;;
21769;SDS011;11046;49.558;8.674;2022-11-15T12:43:38;4.68;;;2.45;;
21769;SDS011;11046;49.558;8.674;2022-11-15T12:56:25;3.28;;;2.08;;
21769;SDS011;11046;49.558;8.674;2022-11-15T13:03:17;4.32;;;2.55;;
21769;SDS011;11046;49.558;8.674;2022-11-15T13:12:54;7.22;;;2.65;;
21769;SDS011;11046;49.558;8.674;2022-11-15T13:16:00;4.57;;;3.10;;
21769;SDS011;11046;49.558;8.674;2022-11-15T13:19:01;8.18;;;2.90;;
21769;SDS011;11046;49.558;8.674;2022-11-15T13:22:04;7.30;;;3.97;;
21769;SDS011;11046;49.558;8.674;2022-11-15T13:29:03;5.15;;;3.50;;
21769;SDS011;11046;49.558;8.674;2022-11-15T13:32:09;6.40;;;3.30;;
21769;SDS011;11046;49.558;8.674;2022-11-15T13:35:25;5.60;;;3.38;;
21769;SDS011;11046;49.558;8.674;2022-11-15T13:38:29;4.75;;;3.60;;
21769;SDS011;11046;49.558;8.674;2022-11-15T13:41:45;8.13;;;3.80;;
21769;SDS011;11046;49.558;8.674;2022-11-15T13:44:56;7.47;;;3.65;;
21769;SDS011;11046;49.558;8.674;2022-11-15T13:47:58;25.50;;;8.05;;
21769;SDS011;11046;49.558;8.674;2022-11-15T13:51:04;6.07;;;4.18;;
21769;SDS011;11046;49.558;8.674;2022-11-15T13:57:24;60.03;;;17.15;;
21769;SDS011;11046;49.558;8.674;2022-11-15T14:00:33;54.75;;;15.60;;
21769;SDS011;11046;49.558;8.674;2022-11-15T14:04:18;14.52;;;6.43;;
21769;SDS011;11046;49.558;8.674;2022-11-15T14:07:18;9.15;;;4.40;;
21769;SDS011;11046;49.558;8.674;2022-11-15T14:10:44;7.13;;;3.78;;
21769;SDS011;11046;49.558;8.674;2022-11-15T14:17:04;8.70;;;3.65;;
21769;SDS011;11046;49.558;8.674;2022-11-15T14:20:19;13.50;;;7.50;;
21769;SDS011;11046;49.558;8.674;2022-11-15T14:23:32;17.45;;;7.03;;
21769;SDS011;11046;49.558;8.674;2022-11-15T14:26:34;16.88;;;7.50;;
21769;SDS011;11046;49.558;8.674;2022-11-15T14:29:34;9.70;;;4.90;;
21769;SDS011;11046;49.558;8.674;2022-11-15T14:35:46;5.55;;;2.63;;
21769;SDS011;11046;49.558;8.674;2022-11-15T14:38:50;4.47;;;2.35;;
21769;SDS011;11046;49.558;8.674;2022-11-15T14:41:51;2.95;;;2.10;;
21769;SDS011;11046;49.558;8.674;2022-11-15T14:44:51;3.53;;;2.00;;
21769;SDS011;11046;49.558;8.674;2022-11-15T14:47:52;5.00;;;2.22;;
21769;SDS011;11046;49.558;8.674;2022-11-15T14:50:53;4.57;;;2.13;;
21769;SDS011;11046;49.558;8.674;2022-11-15T14:53:53;4.32;;;2.10;;
21769;SDS011;11046;49.558;8.674;2022-11-15T14:56:58;2.38;;;1.75;;
21769;SDS011;11046;49.558;8.674;2022-11-15T14:59:59;5.72;;;1.90;;
21769;SDS011;11046;49.558;8.674;2022-11-15T15:03:12;3.13;;;2.08;;
21769;SDS011;11046;49.558;8.674;2022-11-15T15:06:13;4.65;;;2.22;;
21769;SDS011;11046;49.558;8.674;2022-11-15T15:09:14;2.35;;;1.70;;
21769;SDS011;11046;49.558;8.674;2022-11-15T15:12:16;5.22;;;2.03;;
21769;SDS011;11046;49.558;8.674;2022-11-15T15:15:20;3.38;;;2.20;;
21769;SDS011;11046;49.558;8.674;2022-11-15T15:18:27;7.20;;;2.20;;
21769;SDS011;11046;49.558;8.674;2022-11-15T15:21:28;4.50;;;2.27;;
21769;SDS011;11046;49.558;8.674;2022-11-15T15:24:31;3.60;;;2.10;;
21769;SDS011;11046;49.558;8.674;2022-11-15T15:27:31;5.57;;;2.33;;
21769;SDS011;11046;49.558;8.674;2022-11-15T15:30:32;4.17;;;2.30;;
21769;SDS011;11046;49.558;8.674;2022-11-15T15:33:33;4.57;;;2.37;;
21769;SDS011;11046;49.558;8.674;2022-11-15T15:36:33;5.87;;;2.60;;
21769;SDS011;11046;49.558;8.674;2022-11-15T15:39:34;3.93;;;2.40;;
21769;SDS011;11046;49.558;8.674;2022-11-15T15:42:34;4.60;;;2.73;;
21769;SDS011;11046;49.558;8.674;2022-11-15T15:45:39;3.17;;;2.07;;
21769;SDS011;11046;49.558;8.674;2022-11-15T15:48:41;7.23;;;2.33;;
21769;SDS011;11046;49.558;8.674;2022-11-15T15:51:42;7.47;;;2.37;;
21769;SDS011;11046;49.558;8.674;2022-11-15T15:54:43;6.10;;;2.30;;
21769;SDS011;11046;49.558;8.674;2022-11-15T15:57:44;4.83;;;2.80;;
21769;SDS011;11046;49.558;8.674;2022-11-15T16:00:45;3.87;;;2.50;;
21769;SDS011;11046;49.558;8.674;2022-11-15T16:03:46;3.63;;;2.33;;
21769;SDS011;11046;49.558;8.674;2022-11-15T16:06:47;4.27;;;2.40;;
21769;SDS011;11046;49.558;8.674;2022-11-15T16:09:50;4.57;;;2.35;;
21769;SDS011;11046;49.558;8.674;2022-11-15T16:13:00;7.95;;;2.50;;
21769;SDS011;11046;49.558;8.674;2022-11-15T16:16:00;4.93;;;2.77;;
21769;SDS011;11046;49.558;8.674;2022-11-15T16:19:01;3.10;;;2.37;;
21769;SDS011;11046;49.558;8.674;2022-11-15T16:22:01;4.37;;;2.50;;
21769;SDS011;11046;49.558;8.674;2022-11-15T16:25:02;5.63;;;2.80;;
21769;SDS011;11046;49.558;8.674;2022-11-15T16:28:03;4.23;;;2.50;;
21769;SDS011;11046;49.558;8.674;2022-11-15T16:31:11;9.80;;;3.03;;
21769;SDS011;11046;49.558;8.674;2022-11-15T16:34:12;5.57;;;2.67;;
21769;SDS011;11046;49.558;8.674;2022-11-15T16:37:22;3.90;;;2.90;;
21769;SDS011;11046;49.558;8.674;2022-11-15T16:40:41;5.57;;;3.20;;
21769;SDS011;11046;49.558;8.674;2022-11-15T16:43:45;8.30;;;3.20;;
21769;SDS011;11046;49.558;8.674;2022-11-15T16:46:46;7.35;;;3.10;;
21769;SDS011;11046;49.558;8.674;2022-11-15T16:49:50;6.10;;;3.00;;
21769;SDS011;11046;49.558;8.674;2022-11-15T16:52:52;7.90;;;3.03;;
21769;SDS011;11046;49.558;8.674;2022-11-15T16:55:53;5.27;;;2.73;;
21769;SDS011;11046;49.558;8.674;2022-11-15T16:58:55;7.93;;;2.80;;
21769;SDS011;11046;49.558;8.674;2022-11-15T17:02:00;4.33;;;2.40;;
21769;SDS011;11046;49.558;8.674;2022-11-15T17:05:00;5.10;;;2.80;;
21769;SDS011;11046;49.558;8.674;2022-11-15T17:08:01;9.40;;;4.10;;
21769;SDS011;11046;49.558;8.674;2022-11-15T17:11:05;9.60;;;3.03;;
21769;SDS011;11046;49.558;8.674;2022-11-15T17:14:07;6.82;;;2.50;;
21769;SDS011;11046;49.558;8.674;2022-11-15T17:17:08;8.57;;;2.70;;
21769;SDS011;11046;49.558;8.674;2022-11-15T17:20:12;6.93;;;2.50;;
21769;SDS011;11046;49.558;8.674;2022-11-15T17:23:15;4.80;;;2.40;;
21769;SDS011;11046;49.558;8.674;2022-11-15T17:26:16;6.53;;;2.43;;
21769;SDS011;11046;49.558;8.674;2022-11-15T17:29:17;3.50;;;2.40;;
21769;SDS011;11046;49.558;8.674;2022-11-15T17:32:17;5.17;;;2.53;;
21769;SDS011;11046;49.558;8.674;2022-11-15T17:35:18;4.50;;;2.83;;
21769;SDS011;11046;49.558;8.674;2022-11-15T17:38:19;6.70;;;2.70;;
21769;SDS011;11046;49.558;8.674;2022-11-15T17:41:19;4.97;;;2.60;;
21769;SDS011;11046;49.558;8.674;2022-11-15T17:44:20;5.67;;;2.43;;
21769;SDS011;11046;49.558;8.674;2022-11-15T17:47:21;5.83;;;2.43;;
21769;SDS011;11046;49.558;8.674;2022-11-15T17:50:22;6.73;;;2.73;;
21769;SDS011;11046;49.558;8.674;2022-11-15T17:53:26;4.83;;;2.80;;
21769;SDS011;11046;49.558;8.674;2022-11-15T17:56:36;4.37;;;2.57;;
21769;SDS011;11046;49.558;8.674;2022-11-15T17:59:38;4.00;;;2.40;;
21769;SDS011;11046;49.558;8.674;2022-11-15T18:02:39;3.80;;;2.57;;
21769;SDS011;11046;49.558;8.674;2022-11-15T18:05:40;4.83;;;2.70;;
21769;SDS011;11046;49.558;8.674;2022-11-15T18:08:45;6.43;;;2.47;;
21769;SDS011;11046;49.558;8.674;2022-11-15T18:11:47;6.68;;;2.40;;
21769;SDS011;11046;49.558;8.674;2022-11-15T18:14:50;8.83;;;4.00;;
21769;SDS011;11046;49.558;8.674;2022-11-15T18:17:51;10.80;;;5.13;;
21769;SDS011;11046;49.558;8.674;2022-11-15T18:20:58;7.53;;;3.40;;
21769;SDS011;11046;49.558;8.674;2022-11-15T18:24:03;6.20;;;3.20;;
21769;SDS011;11046;49.558;8.674;2022-11-15T18:27:04;5.88;;;2.67;;
21769;SDS011;11046;49.558;8.674;2022-11-15T18:30:06;8.15;;;3.00;;
21769;SDS011;11046;49.558;8.674;2022-11-15T18:33:07;9.17;;;3.83;;
21769;SDS011;11046;49.558;8.674;2022-11-15T18:36:12;6.63;;;3.20;;
21769;SDS011;11046;49.558;8.674;2022-11-15T18:39:23;7.30;;;3.73;;
21769;SDS011;11046;49.558;8.674;2022-11-15T18:42:24;5.80;;;2.90;;
21769;SDS011;11046;49.558;8.674;2022-11-15T18:45:25;6.63;;;3.50;;
21769;SDS011;11046;49.558;8.674;2022-11-15T18:48:27;8.13;;;4.57;;
21769;SDS011;11046;49.558;8.674;2022-11-15T18:51:30;7.45;;;3.00;;
21769;SDS011;11046;49.558;8.674;2022-11-15T18:54:31;6.27;;;3.93;;
21769;SDS011;11046;49.558;8.674;2022-11-15T18:57:32;3.07;;;2.30;;
21769;SDS011;11046;49.558;8.674;2022-11-15T19:00:33;4.23;;;2.57;;
21769;SDS011;11046;49.558;8.674;2022-11-15T19:03:34;4.23;;;2.20;;
21769;SDS011;11046;49.558;8.674;2022-11-15T19:06:37;6.90;;;3.00;;
21769;SDS011;11046;49.558;8.674;2022-11-15T19:09:39;5.23;;;3.47;;
21769;SDS011;11046;49.558;8.674;2022-11-15T19:12:40;5.43;;;2.40;;
21769;SDS011;11046;49.558;8.674;2022-11-15T19:15:40;5.07;;;2.57;;
21769;SDS011;11046;49.558;8.674;2022-11-15T19:18:41;6.33;;;2.73;;
21769;SDS011;11046;49.558;8.674;2022-11-15T19:21:42;4.57;;;2.90;;
21769;SDS011;11046;49.558;8.674;2022-11-15T19:24:43;5.17;;;2.70;;
21769;SDS011;11046;49.558;8.674;2022-11-15T19:27:44;4.27;;;2.33;;
21769;SDS011;11046;49.558;8.674;2022-11-15T19:30:44;5.57;;;2.83;;
21769;SDS011;11046;49.558;8.674;2022-11-15T19:33:45;5.47;;;2.70;;
21769;SDS011;11046;49.558;8.674;2022-11-15T19:36:46;3.83;;;2.67;;
21769;SDS011;11046;49.558;8.674;2022-11-15T19:39:47;4.60;;;2.75;;
21769;SDS011;11046;49.558;8.674;2022-11-15T19:42:47;8.77;;;3.40;;
21769;SDS011;11046;49.558;8.674;2022-11-15T19:45:52;4.63;;;2.83;;
21769;SDS011;11046;49.558;8.674;2022-11-15T19:48:53;7.05;;;2.80;;
21769;SDS011;11046;49.558;8.674;2022-11-15T19:51:54;6.43;;;3.17;;
21769;SDS011;11046;49.558;8.674;2022-11-15T19:54:54;6.43;;;2.78;;
21769;SDS011;11046;49.558;8.674;2022-11-15T19:57:55;5.60;;;2.93;;
21769;SDS011;11046;49.558;8.674;2022-11-15T20:01:00;8.77;;;3.37;;
21769;SDS011;11046;49.558;8.674;2022-11-15T20:04:04;8.67;;;3.00;;
21769;SDS011;11046;49.558;8.674;2022-11-15T20:07:06;5.50;;;2.97;;
21769;SDS011;11046;49.558;8.674;2022-11-15T20:10:08;5.97;;;2.90;;
21769;SDS011;11046;49.558;8.674;2022-11-15T20:13:09;7.80;;;3.08;;
21769;SDS011;11046;49.558;8.674;2022-11-15T20:16:14;5.43;;;2.80;;
21769;SDS011;11046;49.558;8.674;2022-11-15T20:19:17;9.63;;;3.30;;
21769;SDS011;11046;49.558;8.674;2022-11-15T20:22:18;4.60;;;2.67;;
21769;SDS011;11046;49.558;8.674;2022-11-15T20:25:19;3.33;;;2.70;;
21769;SDS011;11046;49.558;8.674;2022-11-15T20:28:21;5.93;;;3.40;;
21769;SDS011;11046;49.558;8.674;2022-11-15T20:31:23;5.10;;;3.10;;
21769;SDS011;11046;49.558;8.674;2022-11-15T20:34:24;10.33;;;3.00;;
21769;SDS011;11046;49.558;8.674;2022-11-15T20:37:24;6.57;;;2.93;;
21769;SDS011;11046;49.558;8.674;2022-11-15T20:40:25;5.70;;;3.07;;
21769;SDS011;11046;49.558;8.674;2022-11-15T20:43:26;4.80;;;3.10;;
21769;SDS011;11046;49.558;8.674;2022-11-15T20:46:26;5.27;;;3.27;;
21769;SDS011;11046;49.558;8.674;2022-11-15T20:49:30;4.10;;;3.00;;
21769;SDS011;11046;49.558;8.674;2022-11-15T20:52:31;6.43;;;3.40;;
21769;SDS011;11046;49.558;8.674;2022-11-15T20:55:31;8.80;;;3.77;;